createdAt,value
2018-05-02T00:01:12.167Z,12.40
2018-05-02T00:03:39.502Z,9.90
2018-05-02T00:06:06.884Z,11.03
2018-05-02T00:08:34.264Z,12.43
2018-05-02T00:11:01.604Z,9.33
2018-05-02T00:13:29.118Z,9.93
2018-05-02T00:15:56.463Z,11.67
2018-05-02T00:18:23.841Z,11.07
2018-05-02T00:20:51.245Z,13.07
2018-05-02T00:23:18.683Z,11.63
2018-05-02T00:25:46.080Z,9.73
2018-05-02T00:28:13.456Z,10.53
2018-05-02T00:30:40.847Z,12.00
2018-05-02T00:33:08.188Z,10.57
2018-05-02T00:35:35.546Z,11.73
2018-05-02T00:38:02.976Z,13.80
2018-05-02T00:40:30.322Z,13.10
2018-05-02T00:42:57.752Z,10.83
2018-05-02T00:45:25.096Z,12.73
2018-05-02T00:47:52.506Z,12.17
2018-05-02T00:50:19.870Z,13.27
2018-05-02T00:52:47.277Z,11.17
2018-05-02T00:55:14.651Z,12.03
2018-05-02T00:57:42.002Z,12.47
2018-05-02T01:00:09.387Z,12.00
2018-05-02T01:02:36.870Z,13.67
2018-05-02T01:05:04.287Z,12.90
2018-05-02T01:07:31.699Z,11.33
2018-05-02T01:09:59.074Z,11.10
2018-05-02T01:12:26.457Z,12.40
2018-05-02T01:14:53.856Z,10.60
2018-05-02T01:17:21.204Z,9.07
2018-05-02T01:19:48.592Z,14.47
2018-05-02T01:22:16.004Z,11.30
2018-05-02T01:24:43.432Z,12.30
2018-05-02T01:27:10.815Z,14.20
2018-05-02T01:29:38.216Z,12.50
2018-05-02T01:32:05.621Z,12.67
2018-05-02T01:34:33.011Z,11.73
2018-05-02T01:37:00.410Z,12.50
2018-05-02T01:39:27.758Z,10.60
2018-05-02T01:41:55.155Z,12.70
2018-05-02T01:44:22.511Z,12.60
2018-05-02T01:46:49.892Z,18.00
2018-05-02T01:49:23.042Z,13.67
2018-05-02T01:51:50.393Z,11.47
2018-05-02T01:54:17.741Z,11.27
2018-05-02T01:56:45.152Z,11.00
2018-05-02T01:59:12.511Z,12.23
2018-05-02T02:01:39.898Z,15.30
2018-05-02T02:04:07.307Z,12.03
2018-05-02T02:06:34.654Z,11.47
2018-05-02T02:09:02.058Z,13.67
2018-05-02T02:11:29.447Z,13.77
2018-05-02T02:13:56.820Z,12.60
2018-05-02T02:16:24.167Z,12.07
2018-05-02T02:18:51.542Z,14.70
2018-05-02T02:21:18.927Z,13.97
2018-05-02T02:23:46.286Z,12.07
2018-05-02T02:26:13.712Z,13.23
2018-05-02T02:28:41.063Z,14.70
2018-05-02T02:31:08.450Z,13.10
2018-05-02T02:33:35.835Z,16.87
2018-05-02T02:36:03.171Z,14.20
2018-05-02T02:38:30.556Z,17.90
2018-05-02T02:40:57.948Z,17.37
2018-05-02T02:43:25.300Z,15.43
2018-05-02T02:45:52.719Z,14.07
2018-05-02T02:48:20.115Z,15.07
2018-05-02T02:50:47.537Z,13.53
2018-05-02T02:53:15.082Z,16.17
2018-05-02T02:55:42.504Z,13.27
2018-05-02T02:58:09.865Z,16.37
2018-05-02T03:00:37.231Z,14.70
2018-05-02T03:03:04.631Z,13.93
2018-05-02T03:05:32.285Z,14.17
2018-05-02T03:07:59.632Z,13.60
2018-05-02T03:10:27.094Z,13.30
2018-05-02T03:12:54.523Z,17.80
2018-05-02T03:15:21.882Z,14.40
2018-05-02T03:17:49.284Z,17.17
2018-05-02T03:20:16.652Z,16.80
2018-05-02T03:22:44.007Z,17.57
2018-05-02T03:25:11.416Z,18.80
2018-05-02T03:27:38.798Z,17.13
2018-05-02T03:30:06.495Z,17.13
2018-05-02T03:32:33.975Z,16.73
2018-05-02T03:35:01.329Z,16.63
2018-05-02T03:37:28.909Z,15.40
2018-05-02T03:39:56.274Z,18.83
2018-05-02T03:42:23.692Z,19.70
2018-05-02T03:44:51.070Z,16.73
2018-05-02T03:47:18.464Z,16.77
2018-05-02T03:49:45.851Z,16.40
2018-05-02T03:52:13.344Z,19.63
2018-05-02T03:54:40.725Z,18.23
2018-05-02T03:57:08.079Z,16.40
2018-05-02T03:59:41.422Z,16.20
2018-05-02T04:02:14.592Z,19.50
2018-05-02T04:04:47.941Z,16.43
2018-05-02T04:07:15.322Z,20.43
2018-05-02T04:09:42.714Z,18.07
2018-05-02T04:12:11.727Z,16.50
2018-05-02T04:14:39.075Z,20.93
2018-05-02T04:17:06.431Z,22.20
2018-05-02T04:19:33.833Z,19.87
2018-05-02T04:22:01.185Z,26.40
2018-05-02T04:24:28.569Z,24.23
2018-05-02T04:26:56.008Z,30.67
2018-05-02T04:29:23.394Z,37.63
2018-05-02T04:31:50.750Z,28.43
2018-05-02T04:34:18.250Z,25.10
2018-05-02T04:36:45.639Z,28.33
2018-05-02T04:39:12.998Z,27.17
2018-05-02T04:41:40.392Z,30.03
2018-05-02T04:44:07.738Z,22.10
2018-05-02T04:46:35.224Z,24.73
2018-05-02T04:49:02.667Z,18.33
2018-05-02T04:51:30.140Z,19.83
2018-05-02T04:53:57.592Z,21.67
2018-05-02T04:56:25.029Z,16.03
2018-05-02T04:58:52.414Z,20.83
2018-05-02T05:01:19.791Z,19.23
2018-05-02T05:03:47.200Z,20.00
2018-05-02T05:06:14.564Z,18.97
2018-05-02T05:08:41.949Z,13.80
2018-05-02T05:11:09.334Z,19.57
2018-05-02T05:13:36.741Z,16.50
2018-05-02T05:16:04.131Z,18.27
2018-05-02T05:18:31.536Z,16.50
2018-05-02T05:20:58.923Z,19.60
2018-05-02T05:23:26.309Z,23.40
2018-05-02T05:25:53.711Z,19.17
2018-05-02T05:28:21.120Z,15.17
2018-05-02T05:30:49.684Z,22.53
2018-05-02T05:33:17.123Z,23.10
2018-05-02T05:35:44.474Z,20.90
2018-05-02T05:38:11.863Z,19.67
2018-05-02T05:40:39.253Z,16.53
2018-05-02T05:43:06.631Z,20.03
2018-05-02T05:45:34.021Z,17.30
2018-05-02T05:48:01.463Z,15.00
2018-05-02T05:50:28.869Z,18.50
2018-05-02T05:52:56.234Z,16.63
2018-05-02T05:55:23.645Z,17.00
2018-05-02T05:57:51.004Z,17.30
2018-05-02T06:00:19.781Z,19.53
2018-05-02T06:02:47.321Z,16.03
2018-05-02T06:05:14.798Z,13.33
2018-05-02T06:07:42.120Z,15.80
2018-05-02T06:10:09.502Z,15.83
2018-05-02T06:12:37.338Z,14.60
2018-05-02T06:15:04.716Z,16.50
2018-05-02T06:17:32.111Z,12.70
2018-05-02T06:20:00.398Z,15.20
2018-05-02T06:22:27.770Z,17.10
2018-05-02T06:24:55.123Z,15.17
2018-05-02T06:27:22.499Z,16.10
2018-05-02T06:29:49.880Z,15.47
2018-05-02T06:32:17.277Z,14.70
2018-05-02T06:34:44.878Z,13.93
2018-05-02T06:37:12.264Z,12.30
2018-05-02T06:39:39.690Z,10.93
2018-05-02T06:42:07.084Z,15.20
2018-05-02T06:44:34.475Z,12.40
2018-05-02T06:47:02.019Z,12.80
2018-05-02T06:49:29.423Z,15.67
2018-05-02T06:51:56.807Z,10.80
2018-05-02T06:54:24.210Z,13.47
2018-05-02T06:56:51.583Z,14.67
2018-05-02T06:59:18.983Z,10.50
2018-05-02T07:01:46.359Z,11.90
2018-05-02T07:04:13.699Z,12.50
2018-05-02T07:06:41.077Z,10.57
2018-05-02T07:09:08.432Z,11.57
2018-05-02T07:11:35.848Z,14.43
2018-05-02T07:14:03.270Z,14.47
2018-05-02T07:16:30.652Z,10.03
2018-05-02T07:18:58.077Z,13.10
2018-05-02T07:21:25.439Z,12.00
2018-05-02T07:23:52.812Z,13.80
2018-05-02T07:26:20.232Z,13.80
2018-05-02T07:28:47.813Z,18.00
2018-05-02T07:31:15.205Z,14.03
2018-05-02T07:33:42.598Z,15.20
2018-05-02T07:36:09.964Z,12.90
2018-05-02T07:38:37.364Z,10.53
2018-05-02T07:41:04.764Z,8.37
2018-05-02T07:43:32.147Z,8.03
2018-05-02T07:45:59.506Z,14.63
2018-05-02T07:48:26.878Z,12.80
2018-05-02T07:50:54.218Z,9.77
2018-05-02T07:53:21.592Z,15.80
2018-05-02T07:55:48.991Z,10.13
2018-05-02T07:58:16.368Z,7.67
2018-05-02T08:00:43.752Z,12.20
2018-05-02T08:03:11.173Z,11.33
2018-05-02T08:05:38.857Z,12.00
2018-05-02T08:08:06.259Z,10.37
2018-05-02T08:10:33.712Z,16.93
2018-05-02T08:13:01.097Z,9.87
2018-05-02T08:15:28.479Z,11.60
2018-05-02T08:17:55.862Z,11.10
2018-05-02T08:20:23.231Z,10.03
2018-05-02T08:22:50.578Z,8.57
2018-05-02T08:25:17.960Z,10.10
2018-05-02T08:27:45.346Z,11.90
2018-05-02T08:30:13.273Z,7.93
2018-05-02T08:32:40.675Z,11.60
2018-05-02T08:35:08.080Z,11.77
2018-05-02T08:37:35.457Z,17.83
2018-05-02T08:40:02.874Z,9.27
2018-05-02T08:42:30.332Z,9.40
2018-05-02T08:44:57.713Z,10.93
2018-05-02T08:47:25.056Z,7.70
2018-05-02T08:49:52.559Z,9.70
2018-05-02T08:52:19.863Z,8.53
2018-05-02T08:54:47.194Z,9.20
2018-05-02T08:57:14.579Z,10.73
2018-05-02T08:59:41.958Z,11.87
2018-05-02T09:02:09.445Z,7.30
2018-05-02T09:04:36.907Z,6.97
2018-05-02T09:07:04.350Z,6.90
2018-05-02T09:09:31.796Z,5.63
2018-05-02T09:11:59.239Z,10.07
2018-05-02T09:14:26.651Z,12.33
2018-05-02T09:16:53.993Z,8.13
2018-05-02T09:19:21.372Z,7.77
2018-05-02T09:21:48.763Z,5.30
2018-05-02T09:24:16.268Z,8.33
2018-05-02T09:26:43.643Z,6.27
2018-05-02T09:29:11.032Z,9.20
2018-05-02T09:31:38.400Z,7.00
2018-05-02T09:34:05.751Z,11.03
2018-05-02T09:36:33.122Z,8.97
2018-05-02T09:39:00.522Z,6.13
2018-05-02T09:41:27.897Z,5.00
2018-05-02T09:43:55.308Z,6.30
2018-05-02T09:46:22.748Z,7.43
2018-05-02T09:48:50.092Z,8.53
2018-05-02T09:51:17.467Z,8.67
2018-05-02T09:53:44.880Z,7.83
2018-05-02T09:56:12.247Z,7.70
2018-05-02T09:58:39.582Z,8.47
2018-05-02T10:01:06.934Z,6.90
2018-05-02T10:03:34.315Z,5.47
2018-05-02T10:06:01.729Z,7.33
2018-05-02T10:08:29.168Z,7.67
2018-05-02T10:10:56.510Z,6.50
2018-05-02T10:13:23.904Z,7.50
2018-05-02T10:15:51.264Z,7.83
2018-05-02T10:18:18.645Z,7.33
2018-05-02T10:20:46.047Z,10.87
2018-05-02T10:23:13.387Z,9.17
2018-05-02T10:25:40.759Z,5.77
2018-05-02T10:28:08.171Z,8.30
2018-05-02T10:30:35.548Z,6.60
2018-05-02T10:33:03.411Z,7.80
2018-05-02T10:35:30.771Z,5.77
2018-05-02T10:37:58.118Z,4.73
2018-05-02T10:40:25.486Z,6.60
2018-05-02T10:42:52.831Z,7.93
2018-05-02T10:45:20.238Z,3.60
2018-05-02T10:47:47.606Z,3.97
2018-05-02T10:52:53.492Z,7.13
2018-05-02T10:55:21.474Z,5.23
2018-05-02T10:57:48.931Z,4.27
2018-05-02T11:00:16.306Z,3.90
2018-05-02T11:02:43.705Z,8.50
2018-05-02T11:05:11.161Z,8.03
2018-05-02T11:07:38.567Z,5.20
2018-05-02T11:10:05.951Z,4.63
2018-05-02T11:12:33.390Z,7.17
2018-05-02T11:15:00.827Z,4.60
2018-05-02T11:17:28.280Z,4.20
2018-05-02T11:19:55.709Z,7.10
2018-05-02T11:22:23.101Z,5.10
2018-05-02T11:24:50.476Z,5.03
2018-05-02T11:27:17.908Z,5.73
2018-05-02T11:29:45.390Z,5.17
2018-05-02T11:32:12.810Z,4.03
2018-05-02T11:34:40.238Z,3.50
2018-05-02T11:37:08.516Z,4.10
2018-05-02T11:39:35.933Z,4.67
2018-05-02T11:42:03.366Z,6.13
2018-05-02T11:44:30.810Z,3.80
2018-05-02T11:46:58.194Z,5.33
2018-05-02T11:49:25.594Z,5.50
2018-05-02T11:51:53.019Z,7.07
2018-05-02T11:54:20.472Z,6.13
2018-05-02T11:56:47.864Z,8.40
2018-05-02T11:59:15.356Z,7.17
2018-05-02T12:01:42.741Z,6.13
2018-05-02T12:04:10.133Z,5.07
2018-05-02T12:06:37.510Z,5.00
2018-05-02T12:09:04.908Z,6.03
2018-05-02T12:11:32.334Z,6.87
2018-05-02T12:13:59.716Z,6.67
2018-05-02T12:16:27.148Z,9.67
2018-05-02T12:18:54.565Z,6.07
2018-05-02T12:21:21.955Z,4.50
2018-05-02T12:23:49.356Z,6.30
2018-05-02T12:26:16.741Z,7.97
2018-05-02T12:28:44.185Z,8.03
2018-05-02T12:31:11.604Z,10.03
2018-05-02T12:33:39.019Z,9.40
2018-05-02T12:36:06.396Z,7.70
2018-05-02T12:38:33.780Z,7.77
2018-05-02T12:41:01.216Z,9.10
2018-05-02T12:43:28.608Z,11.00
2018-05-02T12:45:56.148Z,14.97
2018-05-02T12:48:23.553Z,12.30
2018-05-02T12:50:51.064Z,6.07
2018-05-02T12:53:18.505Z,9.40
2018-05-02T12:55:45.981Z,8.77
2018-05-02T12:58:13.364Z,10.03
2018-05-02T13:00:40.776Z,8.63
2018-05-02T13:03:08.198Z,8.13
2018-05-02T13:05:35.605Z,6.47
2018-05-02T13:08:02.985Z,10.83
2018-05-02T13:10:30.419Z,7.93
2018-05-02T13:12:57.817Z,12.33
2018-05-02T13:15:25.209Z,6.73
2018-05-02T13:17:52.608Z,12.73
2018-05-02T13:20:19.999Z,4.30
2018-05-02T13:22:47.400Z,4.33
2018-05-02T13:25:14.801Z,6.90
2018-05-02T13:27:42.205Z,6.30
2018-05-02T13:30:09.607Z,5.83
2018-05-02T13:32:36.989Z,5.10
2018-05-02T13:35:04.546Z,4.00
2018-05-02T13:37:31.961Z,5.93
2018-05-02T13:39:59.384Z,4.40
2018-05-02T13:42:26.756Z,5.73
2018-05-02T13:44:54.166Z,3.97
2018-05-02T13:47:21.540Z,4.67
2018-05-02T13:49:48.961Z,4.20
2018-05-02T13:52:16.378Z,3.03
2018-05-02T13:54:43.812Z,3.03
2018-05-02T13:57:11.235Z,4.20
2018-05-02T13:59:38.626Z,8.37
2018-05-02T14:02:06.009Z,4.43
2018-05-02T14:04:33.423Z,8.43
2018-05-02T14:07:00.818Z,3.20
2018-05-02T14:09:28.195Z,2.60
2018-05-02T14:11:55.584Z,6.30
2018-05-02T14:14:22.917Z,7.90
2018-05-02T14:16:50.288Z,3.10
2018-05-02T14:19:17.679Z,2.60
2018-05-02T14:21:45.019Z,3.67
2018-05-02T14:24:12.387Z,3.97
2018-05-02T14:26:39.724Z,4.53
2018-05-02T14:29:07.072Z,2.93
2018-05-02T14:31:34.437Z,4.63
2018-05-02T14:34:01.807Z,3.90
2018-05-02T14:36:29.218Z,5.57
2018-05-02T14:38:56.584Z,4.10
2018-05-02T14:41:23.935Z,2.67
2018-05-02T14:43:51.343Z,6.50
2018-05-02T14:46:18.740Z,2.70
2018-05-02T14:48:46.083Z,2.70
2018-05-02T14:51:13.444Z,3.07
2018-05-02T14:53:40.785Z,3.60
2018-05-02T14:56:08.148Z,4.87
2018-05-02T14:58:35.547Z,7.17
2018-05-02T15:01:02.962Z,4.00
2018-05-02T15:03:30.306Z,4.50
2018-05-02T15:05:58.027Z,3.40
2018-05-02T15:08:25.402Z,3.83
2018-05-02T15:10:52.747Z,4.03
2018-05-02T15:13:20.116Z,3.73
2018-05-02T15:15:47.551Z,4.77
2018-05-02T15:18:14.909Z,7.20
2018-05-02T15:20:42.319Z,4.03
2018-05-02T15:23:09.731Z,5.33
2018-05-02T15:25:37.113Z,3.40
2018-05-02T15:28:04.846Z,6.00
2018-05-02T15:30:32.186Z,5.97
2018-05-02T15:32:59.552Z,7.70
2018-05-02T15:35:26.912Z,3.73
2018-05-02T15:37:54.258Z,6.93
2018-05-02T15:40:21.633Z,4.17
2018-05-02T15:42:49.031Z,5.77
2018-05-02T15:45:16.460Z,5.87
2018-05-02T15:47:43.811Z,4.10
2018-05-02T15:50:11.183Z,5.73
2018-05-02T15:52:38.538Z,5.23
2018-05-02T15:55:05.931Z,5.67
2018-05-02T15:57:33.299Z,5.13
2018-05-02T16:00:00.757Z,5.73
2018-05-02T16:02:28.162Z,6.70
2018-05-02T16:04:55.513Z,7.10
2018-05-02T16:07:22.888Z,6.90
2018-05-02T16:09:50.303Z,4.40
2018-05-02T16:12:17.680Z,9.00
2018-05-02T16:14:45.077Z,8.13
2018-05-02T16:17:12.471Z,5.37
2018-05-02T16:19:39.852Z,4.53
2018-05-02T16:22:07.234Z,4.50
2018-05-02T16:24:34.606Z,4.50
2018-05-02T16:27:02.029Z,7.90
2018-05-02T16:29:29.428Z,4.73
2018-05-02T16:31:56.804Z,6.10
2018-05-02T16:34:24.180Z,5.67
2018-05-02T16:36:51.518Z,6.90
2018-05-02T16:39:18.892Z,7.53
2018-05-02T16:41:46.266Z,6.57
2018-05-02T16:44:13.662Z,6.50
2018-05-02T16:46:41.011Z,9.17
2018-05-02T16:49:08.409Z,6.40
2018-05-02T16:51:35.778Z,5.27
2018-05-02T16:54:03.121Z,5.40
2018-05-02T16:56:30.559Z,9.00
2018-05-02T16:58:57.893Z,5.60
2018-05-02T17:01:25.235Z,6.97
2018-05-02T17:03:52.627Z,8.23
2018-05-02T17:06:20.061Z,10.40
2018-05-02T17:08:48.303Z,8.43
2018-05-02T17:11:15.757Z,5.73
2018-05-02T17:13:43.055Z,15.10
2018-05-02T17:16:10.472Z,10.53
2018-05-02T17:18:37.851Z,6.57
2018-05-02T17:21:05.223Z,5.90
2018-05-02T17:23:32.617Z,12.70
2018-05-02T17:26:00.004Z,8.80
2018-05-02T17:28:27.374Z,11.70
2018-05-02T17:30:54.763Z,11.73
2018-05-02T17:33:22.164Z,8.60
2018-05-02T17:35:49.506Z,6.03
2018-05-02T17:38:16.875Z,8.93
2018-05-02T17:40:44.266Z,5.20
2018-05-02T17:43:11.610Z,6.87
2018-05-02T17:45:39.027Z,9.03
2018-05-02T17:48:06.375Z,7.33
2018-05-02T17:50:33.712Z,6.13
2018-05-02T17:53:01.079Z,7.20
2018-05-02T17:55:28.452Z,6.87
2018-05-02T17:57:55.833Z,10.10
2018-05-02T18:00:23.199Z,9.43
2018-05-02T18:02:50.550Z,8.07
2018-05-02T18:05:17.978Z,11.33
2018-05-02T18:07:45.334Z,12.83
2018-05-02T18:10:12.682Z,7.37
2018-05-02T18:12:40.080Z,7.43
2018-05-02T18:15:07.474Z,8.60
2018-05-02T18:17:34.815Z,8.13
2018-05-02T18:20:02.224Z,8.47
2018-05-02T18:22:29.576Z,16.00
2018-05-02T18:24:56.960Z,8.23
2018-05-02T18:27:24.566Z,8.40
2018-05-02T18:29:51.985Z,10.77
2018-05-02T18:32:19.371Z,8.70
2018-05-02T18:34:46.869Z,8.37
2018-05-02T18:37:14.268Z,8.30
2018-05-02T18:39:41.683Z,11.10
2018-05-02T18:42:09.071Z,9.80
2018-05-02T18:44:36.450Z,10.10
2018-05-02T18:47:03.863Z,9.27
2018-05-02T18:49:31.283Z,10.00
2018-05-02T18:51:58.653Z,6.50
2018-05-02T18:54:26.014Z,6.77
2018-05-02T18:56:53.394Z,8.43
2018-05-02T18:59:20.824Z,9.60
2018-05-02T19:01:48.283Z,9.03
2018-05-02T19:04:15.691Z,11.70
2018-05-02T19:06:43.050Z,10.23
2018-05-02T19:09:10.451Z,11.27
2018-05-02T19:11:37.821Z,9.07
2018-05-02T19:14:05.186Z,8.30
2018-05-02T19:16:32.582Z,8.40
2018-05-02T19:19:05.777Z,10.40
2018-05-02T19:21:33.189Z,15.93
2018-05-02T19:24:00.751Z,15.50
2018-05-02T19:26:33.893Z,12.80
2018-05-02T19:29:01.370Z,7.80
2018-05-02T19:31:34.733Z,11.63
2018-05-02T19:34:02.120Z,11.60
2018-05-02T19:36:29.482Z,9.87
2018-05-02T19:39:00.664Z,11.63
2018-05-02T19:41:33.706Z,11.37
2018-05-02T19:44:02.056Z,10.90
2018-05-02T19:46:29.530Z,6.57
2018-05-02T19:48:56.944Z,13.30
2018-05-02T19:51:30.081Z,8.80
2018-05-02T19:53:57.448Z,10.80
2018-05-02T19:56:24.902Z,11.57
2018-05-02T19:58:52.300Z,16.13
2018-05-02T20:01:25.425Z,13.87
2018-05-02T20:03:52.826Z,12.77
2018-05-02T20:06:20.284Z,9.30
2018-05-02T20:08:53.321Z,10.53
2018-05-02T20:11:26.570Z,11.83
2018-05-02T20:13:59.731Z,9.43
2018-05-02T20:16:27.259Z,13.43
2018-05-02T20:18:54.669Z,10.33
2018-05-02T20:21:22.049Z,12.23
2018-05-02T20:23:49.528Z,10.20
2018-05-02T20:26:16.892Z,11.50
2018-05-02T20:28:44.282Z,12.77
2018-05-02T20:31:11.663Z,8.50
2018-05-02T20:33:39.992Z,9.50
2018-05-02T20:36:07.368Z,9.47
2018-05-02T20:38:34.716Z,10.40
2018-05-02T20:41:02.241Z,9.50
2018-05-02T20:43:29.643Z,14.30
2018-05-02T20:45:57.004Z,14.63
2018-05-02T20:48:24.391Z,11.27
2018-05-02T20:50:51.785Z,9.77
2018-05-02T20:53:19.134Z,8.90
2018-05-02T20:55:46.470Z,9.03
2018-05-02T20:58:13.830Z,9.77
2018-05-02T21:00:41.199Z,8.50
2018-05-02T21:03:08.587Z,16.93
2018-05-02T21:05:35.974Z,10.70
2018-05-02T21:08:03.371Z,12.20
2018-05-02T21:10:30.756Z,11.60
2018-05-02T21:12:58.166Z,10.40
2018-05-02T21:15:25.568Z,10.87
2018-05-02T21:17:52.959Z,9.70
2018-05-02T21:20:20.346Z,13.90
2018-05-02T21:22:47.719Z,8.67
2018-05-02T21:25:15.113Z,9.60
2018-05-02T21:27:42.472Z,10.40
2018-05-02T21:30:09.820Z,10.97
2018-05-02T21:32:37.219Z,9.67
2018-05-02T21:35:04.658Z,10.07
2018-05-02T21:37:32.132Z,13.37
2018-05-02T21:39:59.541Z,8.90
2018-05-02T21:42:26.942Z,11.70
2018-05-02T21:44:54.292Z,10.27
2018-05-02T21:47:21.738Z,8.27
2018-05-02T21:49:49.123Z,10.63
2018-05-02T21:52:16.502Z,12.83
2018-05-02T21:54:43.886Z,9.80
2018-05-02T21:57:11.260Z,11.13
2018-05-02T21:59:38.620Z,13.47
2018-05-02T22:02:06.026Z,22.20
2018-05-02T22:04:33.657Z,10.80
2018-05-02T22:07:00.999Z,10.83
2018-05-02T22:09:28.343Z,9.77
2018-05-02T22:11:55.822Z,11.27
2018-05-02T22:14:23.164Z,13.47
2018-05-02T22:16:50.609Z,14.20
2018-05-02T22:19:17.994Z,11.80
2018-05-02T22:21:45.397Z,10.80
2018-05-02T22:24:12.743Z,12.13
2018-05-02T22:26:40.103Z,12.33
2018-05-02T22:29:07.515Z,17.43
2018-05-02T22:31:35.008Z,12.80
2018-05-02T22:34:02.356Z,13.73
2018-05-02T22:36:29.726Z,16.23
2018-05-02T22:38:57.128Z,11.23
2018-05-02T22:41:24.516Z,14.77
2018-05-02T22:43:51.918Z,12.20
2018-05-02T22:46:19.282Z,21.40
2018-05-02T22:48:46.750Z,12.53
2018-05-02T22:51:14.190Z,14.23
2018-05-02T22:53:41.679Z,13.23
2018-05-02T22:56:09.117Z,17.13
2018-05-02T22:58:36.530Z,11.17
2018-05-02T23:01:03.942Z,11.90
2018-05-02T23:03:31.355Z,10.77
2018-05-02T23:05:58.771Z,12.00
2018-05-02T23:08:26.201Z,12.00
2018-05-02T23:10:53.567Z,10.33
2018-05-02T23:13:20.972Z,12.07
2018-05-02T23:15:48.400Z,11.50
2018-05-02T23:18:15.833Z,12.20
2018-05-02T23:20:43.166Z,15.17
2018-05-02T23:23:10.574Z,13.97
2018-05-02T23:25:38.106Z,13.87
2018-05-02T23:28:05.516Z,17.03
2018-05-02T23:30:32.898Z,15.37
2018-05-02T23:33:00.262Z,15.90
2018-05-02T23:35:27.614Z,14.30
2018-05-02T23:38:02.931Z,14.70
2018-05-02T23:40:30.268Z,15.87
2018-05-02T23:42:57.656Z,13.90
2018-05-02T23:45:25.071Z,15.40
2018-05-02T23:47:52.461Z,11.13
2018-05-02T23:50:19.827Z,16.93
2018-05-02T23:52:47.240Z,15.33
2018-05-02T23:55:14.595Z,16.40
2018-05-02T23:57:41.971Z,13.47
